KLNA/LNA METAR and TAF weather

Enter ICAO airport designator
Station Type Date Time Source
KLNA METAR 2021/03/21 13:10 UTC NOAA

KLNA 211310Z AUTO 27005KT 16/13 A3007 RMK AO2 T01570134 PWINO PNO


Station Type Date Time Source
KLNA Decoded METAR 2021/03/21 13:10 UTC NOAA

Station name not available
Mar 21, 2021 - 09:10 AM EDT / 2021.03.21 1310 UTC
Wind: from the W (270 degrees) at 6 MPH (5 KT):0
Temperature: 60.3 F (15.7 C)
Dew Point: 56.1 F (13.4 C)
Relative Humidity: 86%
Pressure (altimeter): 30.07 in. Hg (1018 hPa)
ob: KLNA 211310Z AUTO 27005KT 16/13 A3007 RMK AO2 T01570134 PWINO PNO
cycle: 13

Station Type Date Time Source
KLNA TAF UTC NOAA

Error!

Example: see airport list